sensor_id;sensor_type;location;lat;lon;timestamp;temperature;humidity
21493;DHT22;10908;50.690;4.400;2022-12-24T00:01:21;10.80;88.30
21493;DHT22;10908;50.690;4.400;2022-12-24T00:03:48;10.70;88.60
21493;DHT22;10908;50.690;4.400;2022-12-24T00:06:19;10.70;88.90
21493;DHT22;10908;50.690;4.400;2022-12-24T00:08:45;10.80;89.00
21493;DHT22;10908;50.690;4.400;2022-12-24T00:11:11;10.70;89.00
21493;DHT22;10908;50.690;4.400;2022-12-24T00:13:37;10.70;89.30
21493;DHT22;10908;50.690;4.400;2022-12-24T00:16:04;10.70;89.30
21493;DHT22;10908;50.690;4.400;2022-12-24T00:18:30;10.70;89.30
21493;DHT22;10908;50.690;4.400;2022-12-24T00:20:55;10.70;89.50
21493;DHT22;10908;50.690;4.400;2022-12-24T00:23:21;10.70;89.70
21493;DHT22;10908;50.690;4.400;2022-12-24T00:25:47;10.60;89.80
21493;DHT22;10908;50.690;4.400;2022-12-24T00:28:13;10.60;89.90
21493;DHT22;10908;50.690;4.400;2022-12-24T00:30:40;10.60;90.00
21493;DHT22;10908;50.690;4.400;2022-12-24T00:33:06;10.60;90.00
21493;DHT22;10908;50.690;4.400;2022-12-24T00:35:36;10.60;90.00
21493;DHT22;10908;50.690;4.400;2022-12-24T00:38:02;10.70;90.00
21493;DHT22;10908;50.690;4.400;2022-12-24T00:40:29;10.70;90.10
21493;DHT22;10908;50.690;4.400;2022-12-24T00:42:55;10.70;90.00
21493;DHT22;10908;50.690;4.400;2022-12-24T00:45:20;10.60;90.10
21493;DHT22;10908;50.690;4.400;2022-12-24T00:47:46;10.70;90.20
21493;DHT22;10908;50.690;4.400;2022-12-24T00:50:12;10.60;90.40
21493;DHT22;10908;50.690;4.400;2022-12-24T00:52:37;10.70;90.50
21493;DHT22;10908;50.690;4.400;2022-12-24T00:55:03;10.70;90.50
21493;DHT22;10908;50.690;4.400;2022-12-24T00:57:29;10.60;90.60
21493;DHT22;10908;50.690;4.400;2022-12-24T00:59:54;10.60;90.80
21493;DHT22;10908;50.690;4.400;2022-12-24T01:02:20;10.60;91.00
21493;DHT22;10908;50.690;4.400;2022-12-24T01:04:46;10.60;91.00
21493;DHT22;10908;50.690;4.400;2022-12-24T01:07:30;10.70;91.00
21493;DHT22;10908;50.690;4.400;2022-12-24T01:09:56;10.70;90.90
21493;DHT22;10908;50.690;4.400;2022-12-24T01:12:21;10.60;90.70
21493;DHT22;10908;50.690;4.400;2022-12-24T01:14:47;10.60;90.80
21493;DHT22;10908;50.690;4.400;2022-12-24T01:17:13;10.60;90.90
21493;DHT22;10908;50.690;4.400;2022-12-24T01:19:38;10.60;90.90
21493;DHT22;10908;50.690;4.400;2022-12-24T01:22:04;10.60;90.90
21493;DHT22;10908;50.690;4.400;2022-12-24T01:24:30;10.60;90.80
21493;DHT22;10908;50.690;4.400;2022-12-24T01:26:55;10.60;90.70
21493;DHT22;10908;50.690;4.400;2022-12-24T01:29:21;10.60;90.50
21493;DHT22;10908;50.690;4.400;2022-12-24T01:31:46;10.50;90.50
21493;DHT22;10908;50.690;4.400;2022-12-24T01:34:12;10.50;90.40
21493;DHT22;10908;50.690;4.400;2022-12-24T01:36:38;10.50;90.50
21493;DHT22;10908;50.690;4.400;2022-12-24T01:39:04;10.50;90.50
21493;DHT22;10908;50.690;4.400;2022-12-24T01:41:30;10.50;90.50
21493;DHT22;10908;50.690;4.400;2022-12-24T01:44:20;10.50;90.20
21493;DHT22;10908;50.690;4.400;2022-12-24T01:46:48;10.60;90.10
21493;DHT22;10908;50.690;4.400;2022-12-24T01:49:15;10.60;90.00
21493;DHT22;10908;50.690;4.400;2022-12-24T01:51:47;10.50;89.80
21493;DHT22;10908;50.690;4.400;2022-12-24T01:54:30;10.60;89.70
21493;DHT22;10908;50.690;4.400;2022-12-24T01:57:01;10.60;89.70
21493;DHT22;10908;50.690;4.400;2022-12-24T01:59:28;10.50;89.60
21493;DHT22;10908;50.690;4.400;2022-12-24T02:01:54;10.60;89.60
21493;DHT22;10908;50.690;4.400;2022-12-24T02:07:44;10.60;89.30
21493;DHT22;10908;50.690;4.400;2022-12-24T02:10:12;10.60;89.20
21493;DHT22;10908;50.690;4.400;2022-12-24T02:12:39;10.60;89.20
21493;DHT22;10908;50.690;4.400;2022-12-24T02:15:08;10.60;89.20
21493;DHT22;10908;50.690;4.400;2022-12-24T02:17:48;10.60;89.20
21493;DHT22;10908;50.690;4.400;2022-12-24T02:29:27;10.70;89.60
21493;DHT22;10908;50.690;4.400;2022-12-24T02:32:02;10.60;89.80
21493;DHT22;10908;50.690;4.400;2022-12-24T02:34:35;10.60;90.10
21493;DHT22;10908;50.690;4.400;2022-12-24T02:37:14;10.60;90.30
21493;DHT22;10908;50.690;4.400;2022-12-24T02:42:11;10.60;90.60
21493;DHT22;10908;50.690;4.400;2022-12-24T02:44:46;10.60;90.80
21493;DHT22;10908;50.690;4.400;2022-12-24T02:47:16;10.60;90.90
21493;DHT22;10908;50.690;4.400;2022-12-24T02:49:44;10.50;91.10
21493;DHT22;10908;50.690;4.400;2022-12-24T02:52:33;10.60;91.10
21493;DHT22;10908;50.690;4.400;2022-12-24T02:55:10;10.60;91.10
21493;DHT22;10908;50.690;4.400;2022-12-24T02:57:53;10.50;91.20
21493;DHT22;10908;50.690;4.400;2022-12-24T03:00:23;10.50;91.10
21493;DHT22;10908;50.690;4.400;2022-12-24T03:05:45;10.50;91.00
21493;DHT22;10908;50.690;4.400;2022-12-24T03:08:13;10.50;90.90
21493;DHT22;10908;50.690;4.400;2022-12-24T03:10:59;10.50;91.00
21493;DHT22;10908;50.690;4.400;2022-12-24T03:13:26;10.60;90.90
21493;DHT22;10908;50.690;4.400;2022-12-24T03:15:52;10.60;90.80
21493;DHT22;10908;50.690;4.400;2022-12-24T03:18:21;10.60;90.80
21493;DHT22;10908;50.690;4.400;2022-12-24T03:21:05;10.60;90.70
21493;DHT22;10908;50.690;4.400;2022-12-24T03:23:32;10.60;90.60
21493;DHT22;10908;50.690;4.400;2022-12-24T03:26:00;10.60;90.40
21493;DHT22;10908;50.690;4.400;2022-12-24T03:28:27;10.60;90.20
21493;DHT22;10908;50.690;4.400;2022-12-24T03:30:53;10.50;90.30
21493;DHT22;10908;50.690;4.400;2022-12-24T03:33:19;10.60;90.40
21493;DHT22;10908;50.690;4.400;2022-12-24T03:35:45;10.60;90.20
21493;DHT22;10908;50.690;4.400;2022-12-24T03:38:10;10.70;90.00
21493;DHT22;10908;50.690;4.400;2022-12-24T03:40:36;10.70;89.90
21493;DHT22;10908;50.690;4.400;2022-12-24T03:43:02;10.70;89.90
21493;DHT22;10908;50.690;4.400;2022-12-24T03:45:28;10.80;89.90
21493;DHT22;10908;50.690;4.400;2022-12-24T03:47:53;10.70;89.90
21493;DHT22;10908;50.690;4.400;2022-12-24T03:50:19;10.70;89.90
21493;DHT22;10908;50.690;4.400;2022-12-24T03:52:45;10.70;89.60
21493;DHT22;10908;50.690;4.400;2022-12-24T03:55:10;10.70;89.60
21493;DHT22;10908;50.690;4.400;2022-12-24T03:57:36;10.70;89.60
21493;DHT22;10908;50.690;4.400;2022-12-24T04:00:03;10.60;89.50
21493;DHT22;10908;50.690;4.400;2022-12-24T04:02:29;10.60;89.50
21493;DHT22;10908;50.690;4.400;2022-12-24T04:04:56;10.70;89.40
21493;DHT22;10908;50.690;4.400;2022-12-24T04:07:22;10.70;89.20
21493;DHT22;10908;50.690;4.400;2022-12-24T04:09:47;10.60;89.00
21493;DHT22;10908;50.690;4.400;2022-12-24T04:12:13;10.70;88.90
21493;DHT22;10908;50.690;4.400;2022-12-24T04:14:38;10.60;88.80
21493;DHT22;10908;50.690;4.400;2022-12-24T04:17:04;10.60;88.70
21493;DHT22;10908;50.690;4.400;2022-12-24T04:19:30;10.60;88.70
21493;DHT22;10908;50.690;4.400;2022-12-24T04:21:55;10.70;88.70
21493;DHT22;10908;50.690;4.400;2022-12-24T04:24:21;10.70;88.60
21493;DHT22;10908;50.690;4.400;2022-12-24T04:26:46;10.70;88.60
21493;DHT22;10908;50.690;4.400;2022-12-24T04:29:12;10.70;88.50
21493;DHT22;10908;50.690;4.400;2022-12-24T04:31:38;10.70;88.50
21493;DHT22;10908;50.690;4.400;2022-12-24T04:34:03;10.80;88.40
21493;DHT22;10908;50.690;4.400;2022-12-24T04:36:29;10.70;88.40
21493;DHT22;10908;50.690;4.400;2022-12-24T04:38:55;10.70;88.40
21493;DHT22;10908;50.690;4.400;2022-12-24T04:41:22;10.60;88.50
21493;DHT22;10908;50.690;4.400;2022-12-24T04:43:49;10.50;88.80
21493;DHT22;10908;50.690;4.400;2022-12-24T04:46:17;10.50;88.90
21493;DHT22;10908;50.690;4.400;2022-12-24T04:48:44;10.50;89.10
21493;DHT22;10908;50.690;4.400;2022-12-24T04:51:11;10.50;89.00
21493;DHT22;10908;50.690;4.400;2022-12-24T04:53:38;10.50;89.10
21493;DHT22;10908;50.690;4.400;2022-12-24T04:56:06;10.50;89.20
21493;DHT22;10908;50.690;4.400;2022-12-24T04:58:32;10.50;89.20
21493;DHT22;10908;50.690;4.400;2022-12-24T05:01:03;10.50;89.20
21493;DHT22;10908;50.690;4.400;2022-12-24T05:03:29;10.50;89.20
21493;DHT22;10908;50.690;4.400;2022-12-24T05:06:03;10.40;89.30
21493;DHT22;10908;50.690;4.400;2022-12-24T05:08:29;10.40;89.30
21493;DHT22;10908;50.690;4.400;2022-12-24T05:10:59;10.40;89.30
21493;DHT22;10908;50.690;4.400;2022-12-24T05:13:25;10.30;89.50
21493;DHT22;10908;50.690;4.400;2022-12-24T05:15:51;10.30;89.60
21493;DHT22;10908;50.690;4.400;2022-12-24T05:18:17;10.30;89.70
21493;DHT22;10908;50.690;4.400;2022-12-24T05:20:43;10.30;89.70
21493;DHT22;10908;50.690;4.400;2022-12-24T05:23:21;10.40;89.60
21493;DHT22;10908;50.690;4.400;2022-12-24T05:26:40;10.30;89.60
21493;DHT22;10908;50.690;4.400;2022-12-24T05:29:08;10.20;89.70
21493;DHT22;10908;50.690;4.400;2022-12-24T05:31:34;10.20;89.70
21493;DHT22;10908;50.690;4.400;2022-12-24T05:34:01;10.20;89.70
21493;DHT22;10908;50.690;4.400;2022-12-24T05:36:27;10.20;89.80
21493;DHT22;10908;50.690;4.400;2022-12-24T05:38:53;10.30;89.80
21493;DHT22;10908;50.690;4.400;2022-12-24T05:41:19;10.30;89.80
21493;DHT22;10908;50.690;4.400;2022-12-24T05:43:45;10.30;89.70
21493;DHT22;10908;50.690;4.400;2022-12-24T05:46:13;10.30;89.70
21493;DHT22;10908;50.690;4.400;2022-12-24T05:48:39;10.30;89.60
21493;DHT22;10908;50.690;4.400;2022-12-24T05:51:06;10.20;89.60
21493;DHT22;10908;50.690;4.400;2022-12-24T05:53:32;10.30;89.60
21493;DHT22;10908;50.690;4.400;2022-12-24T05:56:06;10.30;89.50
21493;DHT22;10908;50.690;4.400;2022-12-24T05:58:33;10.20;89.60
21493;DHT22;10908;50.690;4.400;2022-12-24T06:01:00;10.30;89.50
21493;DHT22;10908;50.690;4.400;2022-12-24T06:03:26;10.30;89.50
21493;DHT22;10908;50.690;4.400;2022-12-24T06:08:30;10.30;89.50
21493;DHT22;10908;50.690;4.400;2022-12-24T06:10:57;10.30;89.50
21493;DHT22;10908;50.690;4.400;2022-12-24T06:13:24;10.20;89.30
21493;DHT22;10908;50.690;4.400;2022-12-24T06:15:50;10.20;89.30
21493;DHT22;10908;50.690;4.400;2022-12-24T06:18:18;10.20;89.40
21493;DHT22;10908;50.690;4.400;2022-12-24T06:20:43;10.20;89.40
21493;DHT22;10908;50.690;4.400;2022-12-24T06:23:09;10.20;89.40
21493;DHT22;10908;50.690;4.400;2022-12-24T06:25:35;10.10;89.60
21493;DHT22;10908;50.690;4.400;2022-12-24T06:28:00;10.20;89.70
21493;DHT22;10908;50.690;4.400;2022-12-24T06:30:26;10.20;89.60
21493;DHT22;10908;50.690;4.400;2022-12-24T06:32:51;10.10;89.60
21493;DHT22;10908;50.690;4.400;2022-12-24T06:35:17;10.10;89.60
21493;DHT22;10908;50.690;4.400;2022-12-24T06:37:42;10.10;89.60
21493;DHT22;10908;50.690;4.400;2022-12-24T06:40:08;10.10;89.60
21493;DHT22;10908;50.690;4.400;2022-12-24T06:42:34;10.10;89.70
21493;DHT22;10908;50.690;4.400;2022-12-24T06:44:59;10.10;89.60
21493;DHT22;10908;50.690;4.400;2022-12-24T06:47:26;10.00;89.70
21493;DHT22;10908;50.690;4.400;2022-12-24T06:49:51;10.00;89.60
21493;DHT22;10908;50.690;4.400;2022-12-24T06:52:17;10.00;89.90
21493;DHT22;10908;50.690;4.400;2022-12-24T06:54:42;10.00;90.00
21493;DHT22;10908;50.690;4.400;2022-12-24T06:57:08;10.00;90.00
21493;DHT22;10908;50.690;4.400;2022-12-24T06:59:33;10.10;90.00
21493;DHT22;10908;50.690;4.400;2022-12-24T07:01:59;10.20;89.90
21493;DHT22;10908;50.690;4.400;2022-12-24T07:04:25;10.10;89.70
21493;DHT22;10908;50.690;4.400;2022-12-24T07:06:50;10.10;89.70
21493;DHT22;10908;50.690;4.400;2022-12-24T07:09:16;10.10;89.80
21493;DHT22;10908;50.690;4.400;2022-12-24T07:11:41;10.10;89.80
21493;DHT22;10908;50.690;4.400;2022-12-24T07:14:07;10.00;89.80
21493;DHT22;10908;50.690;4.400;2022-12-24T07:16:33;10.00;89.80
21493;DHT22;10908;50.690;4.400;2022-12-24T07:18:58;10.10;89.80
21493;DHT22;10908;50.690;4.400;2022-12-24T07:21:24;10.00;89.70
21493;DHT22;10908;50.690;4.400;2022-12-24T07:23:49;10.00;89.90
21493;DHT22;10908;50.690;4.400;2022-12-24T07:26:15;10.10;89.90
21493;DHT22;10908;50.690;4.400;2022-12-24T07:28:41;10.10;89.90
21493;DHT22;10908;50.690;4.400;2022-12-24T07:31:06;10.10;89.80
21493;DHT22;10908;50.690;4.400;2022-12-24T07:33:32;10.20;89.80
21493;DHT22;10908;50.690;4.400;2022-12-24T07:35:59;10.10;89.70
21493;DHT22;10908;50.690;4.400;2022-12-24T07:38:25;10.20;89.70
21493;DHT22;10908;50.690;4.400;2022-12-24T07:40:50;10.20;89.60
21493;DHT22;10908;50.690;4.400;2022-12-24T07:43:16;10.20;89.40
21493;DHT22;10908;50.690;4.400;2022-12-24T07:45:41;10.10;89.40
21493;DHT22;10908;50.690;4.400;2022-12-24T07:48:07;10.10;89.60
21493;DHT22;10908;50.690;4.400;2022-12-24T07:50:33;10.10;89.70
21493;DHT22;10908;50.690;4.400;2022-12-24T07:52:58;10.00;89.60
21493;DHT22;10908;50.690;4.400;2022-12-24T07:55:24;10.10;89.80
21493;DHT22;10908;50.690;4.400;2022-12-24T07:57:49;10.10;89.80
21493;DHT22;10908;50.690;4.400;2022-12-24T08:00:15;10.20;89.80
21493;DHT22;10908;50.690;4.400;2022-12-24T08:02:41;10.10;89.70
21493;DHT22;10908;50.690;4.400;2022-12-24T08:05:07;10.10;89.80
21493;DHT22;10908;50.690;4.400;2022-12-24T08:07:32;10.00;89.80
21493;DHT22;10908;50.690;4.400;2022-12-24T08:09:58;10.00;89.90
21493;DHT22;10908;50.690;4.400;2022-12-24T08:12:24;10.10;89.80
21493;DHT22;10908;50.690;4.400;2022-12-24T08:14:49;10.10;89.70
21493;DHT22;10908;50.690;4.400;2022-12-24T08:17:15;10.20;89.60
21493;DHT22;10908;50.690;4.400;2022-12-24T08:19:40;10.20;89.40
21493;DHT22;10908;50.690;4.400;2022-12-24T08:22:06;10.20;89.40
21493;DHT22;10908;50.690;4.400;2022-12-24T08:24:31;10.20;89.50
21493;DHT22;10908;50.690;4.400;2022-12-24T08:26:57;10.30;89.40
21493;DHT22;10908;50.690;4.400;2022-12-24T08:29:23;10.20;89.40
21493;DHT22;10908;50.690;4.400;2022-12-24T08:31:49;10.20;89.30
21493;DHT22;10908;50.690;4.400;2022-12-24T08:34:14;10.30;89.30
21493;DHT22;10908;50.690;4.400;2022-12-24T08:36:40;10.40;89.20
21493;DHT22;10908;50.690;4.400;2022-12-24T08:39:05;10.40;89.10
21493;DHT22;10908;50.690;4.400;2022-12-24T08:41:33;10.50;89.00
21493;DHT22;10908;50.690;4.400;2022-12-24T08:43:59;10.50;89.00
21493;DHT22;10908;50.690;4.400;2022-12-24T08:46:25;10.50;88.90
21493;DHT22;10908;50.690;4.400;2022-12-24T08:48:50;10.50;88.80
21493;DHT22;10908;50.690;4.400;2022-12-24T08:51:16;10.50;89.00
21493;DHT22;10908;50.690;4.400;2022-12-24T08:53:43;10.60;88.80
21493;DHT22;10908;50.690;4.400;2022-12-24T08:56:09;10.60;88.80
21493;DHT22;10908;50.690;4.400;2022-12-24T08:58:36;10.60;88.70
21493;DHT22;10908;50.690;4.400;2022-12-24T09:01:10;10.60;88.70
21493;DHT22;10908;50.690;4.400;2022-12-24T09:03:36;10.70;88.70
21493;DHT22;10908;50.690;4.400;2022-12-24T09:06:06;10.70;88.50
21493;DHT22;10908;50.690;4.400;2022-12-24T09:08:32;10.80;88.50
21493;DHT22;10908;50.690;4.400;2022-12-24T09:11:06;10.80;88.50
21493;DHT22;10908;50.690;4.400;2022-12-24T09:13:32;10.80;88.40
21493;DHT22;10908;50.690;4.400;2022-12-24T09:15:58;10.90;88.30
21493;DHT22;10908;50.690;4.400;2022-12-24T09:18:24;11.00;87.90
21493;DHT22;10908;50.690;4.400;2022-12-24T09:20:50;10.90;87.90
21493;DHT22;10908;50.690;4.400;2022-12-24T09:23:16;10.90;88.00
21493;DHT22;10908;50.690;4.400;2022-12-24T09:25:42;10.90;88.00
21493;DHT22;10908;50.690;4.400;2022-12-24T09:28:07;10.90;88.00
21493;DHT22;10908;50.690;4.400;2022-12-24T09:30:33;11.00;88.10
21493;DHT22;10908;50.690;4.400;2022-12-24T09:32:59;11.00;88.10
21493;DHT22;10908;50.690;4.400;2022-12-24T09:35:24;10.90;88.10
21493;DHT22;10908;50.690;4.400;2022-12-24T09:37:50;11.00;88.10
21493;DHT22;10908;50.690;4.400;2022-12-24T09:40:34;11.10;87.90
21493;DHT22;10908;50.690;4.400;2022-12-24T09:43:05;11.10;87.80
21493;DHT22;10908;50.690;4.400;2022-12-24T09:45:37;11.20;87.50
21493;DHT22;10908;50.690;4.400;2022-12-24T09:48:16;11.20;87.20
21493;DHT22;10908;50.690;4.400;2022-12-24T09:50:56;11.20;87.10
21493;DHT22;10908;50.690;4.400;2022-12-24T09:55:51;11.40;86.80
21493;DHT22;10908;50.690;4.400;2022-12-24T09:58:32;11.40;86.80
21493;DHT22;10908;50.690;4.400;2022-12-24T10:01:00;11.30;86.80
21493;DHT22;10908;50.690;4.400;2022-12-24T10:03:26;11.30;87.10
21493;DHT22;10908;50.690;4.400;2022-12-24T10:08:46;11.30;87.20
21493;DHT22;10908;50.690;4.400;2022-12-24T10:14:08;11.40;87.10
21493;DHT22;10908;50.690;4.400;2022-12-24T10:17:37;11.50;87.00
21493;DHT22;10908;50.690;4.400;2022-12-24T10:23:16;11.60;86.70
21493;DHT22;10908;50.690;4.400;2022-12-24T10:28:49;11.60;86.50
21493;DHT22;10908;50.690;4.400;2022-12-24T10:31:19;11.60;86.50
21493;DHT22;10908;50.690;4.400;2022-12-24T10:33:52;11.50;86.50
21493;DHT22;10908;50.690;4.400;2022-12-24T10:36:23;11.40;86.60
21493;DHT22;10908;50.690;4.400;2022-12-24T10:38:50;11.50;86.70
21493;DHT22;10908;50.690;4.400;2022-12-24T10:41:16;11.50;86.70
21493;DHT22;10908;50.690;4.400;2022-12-24T10:43:44;11.50;86.70
21493;DHT22;10908;50.690;4.400;2022-12-24T10:48:56;11.60;86.60
21493;DHT22;10908;50.690;4.400;2022-12-24T10:51:56;11.60;86.70
21493;DHT22;10908;50.690;4.400;2022-12-24T10:54:28;11.70;86.80
21493;DHT22;10908;50.690;4.400;2022-12-24T10:57:00;11.70;86.40
21493;DHT22;10908;50.690;4.400;2022-12-24T10:59:30;11.60;86.10
21493;DHT22;10908;50.690;4.400;2022-12-24T11:01:59;11.60;86.30
21493;DHT22;10908;50.690;4.400;2022-12-24T11:04:30;11.60;86.40
21493;DHT22;10908;50.690;4.400;2022-12-24T11:06:59;11.70;86.40
21493;DHT22;10908;50.690;4.400;2022-12-24T11:09:31;11.70;86.30
21493;DHT22;10908;50.690;4.400;2022-12-24T11:12:03;11.70;86.30
21493;DHT22;10908;50.690;4.400;2022-12-24T11:14:36;11.80;86.20
21493;DHT22;10908;50.690;4.400;2022-12-24T11:17:03;11.80;86.10
21493;DHT22;10908;50.690;4.400;2022-12-24T11:19:38;11.90;85.90
21493;DHT22;10908;50.690;4.400;2022-12-24T11:22:20;12.00;85.80
21493;DHT22;10908;50.690;4.400;2022-12-24T11:25:01;12.10;85.40
21493;DHT22;10908;50.690;4.400;2022-12-24T11:27:40;12.10;85.30
21493;DHT22;10908;50.690;4.400;2022-12-24T11:32:43;12.10;85.30
21493;DHT22;10908;50.690;4.400;2022-12-24T11:35:22;12.00;85.40
21493;DHT22;10908;50.690;4.400;2022-12-24T11:38:11;12.00;85.50
21493;DHT22;10908;50.690;4.400;2022-12-24T11:40:41;12.00;85.70
21493;DHT22;10908;50.690;4.400;2022-12-24T11:43:16;12.00;85.80
21493;DHT22;10908;50.690;4.400;2022-12-24T11:45:54;12.00;85.50
21493;DHT22;10908;50.690;4.400;2022-12-24T11:48:29;12.10;85.60
21493;DHT22;10908;50.690;4.400;2022-12-24T11:51:00;12.10;85.40
21493;DHT22;10908;50.690;4.400;2022-12-24T11:53:33;12.10;85.10
21493;DHT22;10908;50.690;4.400;2022-12-24T11:56:06;12.10;85.20
21493;DHT22;10908;50.690;4.400;2022-12-24T12:01:17;12.20;85.10
21493;DHT22;10908;50.690;4.400;2022-12-24T12:03:52;12.20;84.90
21493;DHT22;10908;50.690;4.400;2022-12-24T12:09:01;12.20;85.30
21493;DHT22;10908;50.690;4.400;2022-12-24T12:11:29;12.30;85.20
21493;DHT22;10908;50.690;4.400;2022-12-24T12:13:57;12.30;85.10
21493;DHT22;10908;50.690;4.400;2022-12-24T12:19:22;12.30;84.70
21493;DHT22;10908;50.690;4.400;2022-12-24T12:21:50;12.20;84.80
21493;DHT22;10908;50.690;4.400;2022-12-24T12:24:27;12.20;85.10
21493;DHT22;10908;50.690;4.400;2022-12-24T12:27:03;12.20;85.20
21493;DHT22;10908;50.690;4.400;2022-12-24T12:29:32;12.10;85.30
21493;DHT22;10908;50.690;4.400;2022-12-24T12:32:06;12.20;85.10
21493;DHT22;10908;50.690;4.400;2022-12-24T12:34:34;12.10;85.20
21493;DHT22;10908;50.690;4.400;2022-12-24T12:37:11;12.10;85.20
21493;DHT22;10908;50.690;4.400;2022-12-24T12:39:38;12.10;85.30
21493;DHT22;10908;50.690;4.400;2022-12-24T12:50:38;12.40;85.10
21493;DHT22;10908;50.690;4.400;2022-12-24T12:55:55;12.40;84.90
21493;DHT22;10908;50.690;4.400;2022-12-24T12:58:38;12.40;84.90
21493;DHT22;10908;50.690;4.400;2022-12-24T13:01:12;12.40;84.70
21493;DHT22;10908;50.690;4.400;2022-12-24T13:03:51;12.30;84.50
21493;DHT22;10908;50.690;4.400;2022-12-24T13:06:53;12.30;84.60
21493;DHT22;10908;50.690;4.400;2022-12-24T13:20:32;12.50;84.00
21493;DHT22;10908;50.690;4.400;2022-12-24T13:25:41;12.50;84.00
21493;DHT22;10908;50.690;4.400;2022-12-24T13:33:53;12.40;82.80
21493;DHT22;10908;50.690;4.400;2022-12-24T13:36:20;12.40;82.80
21493;DHT22;10908;50.690;4.400;2022-12-24T13:38:51;12.50;83.00
21493;DHT22;10908;50.690;4.400;2022-12-24T13:47:00;12.90;82.50
21493;DHT22;10908;50.690;4.400;2022-12-24T13:49:47;12.90;82.00
21493;DHT22;10908;50.690;4.400;2022-12-24T13:52:22;12.80;81.50
21493;DHT22;10908;50.690;4.400;2022-12-24T14:02:32;12.70;81.70
21493;DHT22;10908;50.690;4.400;2022-12-24T14:05:02;12.60;81.80
21493;DHT22;10908;50.690;4.400;2022-12-24T14:07:29;12.60;81.90
21493;DHT22;10908;50.690;4.400;2022-12-24T14:09:56;12.60;82.20
21493;DHT22;10908;50.690;4.400;2022-12-24T14:12:45;12.60;82.10
21493;DHT22;10908;50.690;4.400;2022-12-24T14:18:24;12.40;82.60
21493;DHT22;10908;50.690;4.400;2022-12-24T14:20:51;12.40;82.90
21493;DHT22;10908;50.690;4.400;2022-12-24T14:23:40;12.30;83.20
21493;DHT22;10908;50.690;4.400;2022-12-24T14:26:16;12.30;83.50
21493;DHT22;10908;50.690;4.400;2022-12-24T14:28:56;12.30;83.70
21493;DHT22;10908;50.690;4.400;2022-12-24T14:31:22;12.20;83.70
21493;DHT22;10908;50.690;4.400;2022-12-24T14:33:49;12.20;83.90
21493;DHT22;10908;50.690;4.400;2022-12-24T14:36:22;12.10;83.80
21493;DHT22;10908;50.690;4.400;2022-12-24T14:38:49;12.10;83.80
21493;DHT22;10908;50.690;4.400;2022-12-24T14:44:14;12.00;84.20
21493;DHT22;10908;50.690;4.400;2022-12-24T14:46:56;11.80;84.50
21493;DHT22;10908;50.690;4.400;2022-12-24T14:55:38;11.70;85.20
21493;DHT22;10908;50.690;4.400;2022-12-24T15:00:42;11.70;85.50
21493;DHT22;10908;50.690;4.400;2022-12-24T15:03:13;11.70;85.60
21493;DHT22;10908;50.690;4.400;2022-12-24T15:05:39;11.60;85.80
21493;DHT22;10908;50.690;4.400;2022-12-24T15:08:22;11.60;85.90
21493;DHT22;10908;50.690;4.400;2022-12-24T15:10:52;11.60;85.90
21493;DHT22;10908;50.690;4.400;2022-12-24T15:13:35;11.60;85.90
21493;DHT22;10908;50.690;4.400;2022-12-24T15:16:04;11.70;86.00
21493;DHT22;10908;50.690;4.400;2022-12-24T15:18:32;11.50;86.00
21493;DHT22;10908;50.690;4.400;2022-12-24T15:21:02;11.50;86.10
21493;DHT22;10908;50.690;4.400;2022-12-24T15:23:32;11.40;86.20
21493;DHT22;10908;50.690;4.400;2022-12-24T15:28:47;11.30;86.70
21493;DHT22;10908;50.690;4.400;2022-12-24T15:31:19;11.10;86.90
21493;DHT22;10908;50.690;4.400;2022-12-24T15:33:51;11.20;87.00
21493;DHT22;10908;50.690;4.400;2022-12-24T15:36:41;11.10;87.10
21493;DHT22;10908;50.690;4.400;2022-12-24T15:39:13;11.10;87.20
21493;DHT22;10908;50.690;4.400;2022-12-24T15:41:42;11.10;87.40
21493;DHT22;10908;50.690;4.400;2022-12-24T15:56:12;11.00;87.70
21493;DHT22;10908;50.690;4.400;2022-12-24T15:58:41;11.10;88.30
21493;DHT22;10908;50.690;4.400;2022-12-24T16:03:53;11.20;88.20
21493;DHT22;10908;50.690;4.400;2022-12-24T16:06:19;11.30;88.00
21493;DHT22;10908;50.690;4.400;2022-12-24T16:08:46;11.40;87.70
21493;DHT22;10908;50.690;4.400;2022-12-24T16:11:21;11.30;87.80
21493;DHT22;10908;50.690;4.400;2022-12-24T16:16:35;11.30;88.20
21493;DHT22;10908;50.690;4.400;2022-12-24T16:19:03;11.20;88.20
21493;DHT22;10908;50.690;4.400;2022-12-24T16:21:38;11.20;88.20
21493;DHT22;10908;50.690;4.400;2022-12-24T16:24:23;11.20;88.20
21493;DHT22;10908;50.690;4.400;2022-12-24T16:26:50;11.00;88.30
21493;DHT22;10908;50.690;4.400;2022-12-24T16:29:16;11.00;88.30
21493;DHT22;10908;50.690;4.400;2022-12-24T16:31:46;10.90;88.50
21493;DHT22;10908;50.690;4.400;2022-12-24T16:34:14;10.90;88.50
21493;DHT22;10908;50.690;4.400;2022-12-24T16:36:42;11.00;88.80
21493;DHT22;10908;50.690;4.400;2022-12-24T16:39:18;11.10;88.60
21493;DHT22;10908;50.690;4.400;2022-12-24T16:41:47;10.90;88.50
21493;DHT22;10908;50.690;4.400;2022-12-24T16:44:32;10.80;88.40
21493;DHT22;10908;50.690;4.400;2022-12-24T16:46:58;10.80;88.50
21493;DHT22;10908;50.690;4.400;2022-12-24T16:49:25;10.90;88.40
21493;DHT22;10908;50.690;4.400;2022-12-24T16:51:51;10.90;88.10
21493;DHT22;10908;50.690;4.400;2022-12-24T16:54:18;10.80;88.10
21493;DHT22;10908;50.690;4.400;2022-12-24T16:56:44;10.80;88.10
21493;DHT22;10908;50.690;4.400;2022-12-24T16:59:18;10.80;88.10
21493;DHT22;10908;50.690;4.400;2022-12-24T17:01:45;10.80;88.00
21493;DHT22;10908;50.690;4.400;2022-12-24T17:04:11;10.70;87.90
21493;DHT22;10908;50.690;4.400;2022-12-24T17:06:36;10.70;87.90
21493;DHT22;10908;50.690;4.400;2022-12-24T17:09:02;10.60;87.90
21493;DHT22;10908;50.690;4.400;2022-12-24T17:11:28;10.50;88.00
21493;DHT22;10908;50.690;4.400;2022-12-24T17:13:54;10.40;88.10
21493;DHT22;10908;50.690;4.400;2022-12-24T17:16:19;10.40;88.20
21493;DHT22;10908;50.690;4.400;2022-12-24T17:18:45;10.30;88.30
21493;DHT22;10908;50.690;4.400;2022-12-24T17:21:11;10.20;88.40
21493;DHT22;10908;50.690;4.400;2022-12-24T17:23:40;10.10;88.50
21493;DHT22;10908;50.690;4.400;2022-12-24T17:26:06;10.20;88.90
21493;DHT22;10908;50.690;4.400;2022-12-24T17:28:32;10.30;88.90
21493;DHT22;10908;50.690;4.400;2022-12-24T17:30:58;10.20;88.90
21493;DHT22;10908;50.690;4.400;2022-12-24T17:33:23;10.20;88.90
21493;DHT22;10908;50.690;4.400;2022-12-24T17:35:50;10.10;89.00
21493;DHT22;10908;50.690;4.400;2022-12-24T17:38:17;10.10;89.10
21493;DHT22;10908;50.690;4.400;2022-12-24T17:40:42;10.20;89.10
21493;DHT22;10908;50.690;4.400;2022-12-24T17:43:08;10.20;89.00
21493;DHT22;10908;50.690;4.400;2022-12-24T17:45:39;10.10;88.90
21493;DHT22;10908;50.690;4.400;2022-12-24T17:48:05;10.00;88.90
21493;DHT22;10908;50.690;4.400;2022-12-24T17:50:30;10.10;89.00